sensor_id;sensor_type;location;lat;lon;timestamp;P1;durP1;ratioP1;P2;durP2;ratioP2
62848;SDS011;48941;49.516;8.286;2023-03-19T00:02:07;12.13;;;4.63;;
62848;SDS011;48941;49.516;8.286;2023-03-19T00:04:44;10.38;;;4.68;;
62848;SDS011;48941;49.516;8.286;2023-03-19T00:07:13;6.75;;;4.57;;
62848;SDS011;48941;49.516;8.286;2023-03-19T00:09:42;8.93;;;4.60;;
62848;SDS011;48941;49.516;8.286;2023-03-19T00:12:10;8.50;;;4.88;;
62848;SDS011;48941;49.516;8.286;2023-03-19T00:14:38;12.88;;;4.43;;
62848;SDS011;48941;49.516;8.286;2023-03-19T00:17:06;8.88;;;5.05;;
62848;SDS011;48941;49.516;8.286;2023-03-19T00:19:34;9.02;;;5.40;;
62848;SDS011;48941;49.516;8.286;2023-03-19T00:22:03;13.60;;;5.30;;
62848;SDS011;48941;49.516;8.286;2023-03-19T00:24:31;13.30;;;5.50;;
62848;SDS011;48941;49.516;8.286;2023-03-19T00:26:59;9.98;;;5.43;;
62848;SDS011;48941;49.516;8.286;2023-03-19T00:29:28;12.02;;;5.43;;
62848;SDS011;48941;49.516;8.286;2023-03-19T00:31:56;10.57;;;5.18;;
62848;SDS011;48941;49.516;8.286;2023-03-19T00:34:24;11.23;;;5.88;;
62848;SDS011;48941;49.516;8.286;2023-03-19T00:36:52;9.07;;;5.80;;
62848;SDS011;48941;49.516;8.286;2023-03-19T00:39:22;10.23;;;5.30;;
62848;SDS011;48941;49.516;8.286;2023-03-19T00:41:50;10.07;;;5.70;;
62848;SDS011;48941;49.516;8.286;2023-03-19T00:44:18;13.95;;;5.45;;
62848;SDS011;48941;49.516;8.286;2023-03-19T00:46:46;7.80;;;5.32;;
62848;SDS011;48941;49.516;8.286;2023-03-19T00:49:14;10.82;;;5.90;;
62848;SDS011;48941;49.516;8.286;2023-03-19T00:51:42;11.85;;;6.00;;
62848;SDS011;48941;49.516;8.286;2023-03-19T00:54:11;10.68;;;6.15;;
62848;SDS011;48941;49.516;8.286;2023-03-19T00:56:40;8.80;;;5.40;;
62848;SDS011;48941;49.516;8.286;2023-03-19T00:59:08;9.93;;;5.97;;
62848;SDS011;48941;49.516;8.286;2023-03-19T01:01:35;9.75;;;5.43;;
62848;SDS011;48941;49.516;8.286;2023-03-19T01:04:04;9.63;;;5.78;;
62848;SDS011;48941;49.516;8.286;2023-03-19T01:06:32;10.00;;;5.18;;
62848;SDS011;48941;49.516;8.286;2023-03-19T01:09:00;9.93;;;5.60;;
62848;SDS011;48941;49.516;8.286;2023-03-19T01:11:27;8.27;;;5.35;;
62848;SDS011;48941;49.516;8.286;2023-03-19T01:14:01;10.13;;;5.38;;
62848;SDS011;48941;49.516;8.286;2023-03-19T01:16:29;11.10;;;5.40;;
62848;SDS011;48941;49.516;8.286;2023-03-19T01:18:59;9.80;;;5.65;;
62848;SDS011;48941;49.516;8.286;2023-03-19T01:21:27;9.73;;;5.85;;
62848;SDS011;48941;49.516;8.286;2023-03-19T01:23:56;9.38;;;5.40;;
62848;SDS011;48941;49.516;8.286;2023-03-19T01:26:24;10.23;;;5.68;;
62848;SDS011;48941;49.516;8.286;2023-03-19T01:28:52;10.13;;;5.75;;
62848;SDS011;48941;49.516;8.286;2023-03-19T01:31:22;8.75;;;5.32;;
62848;SDS011;48941;49.516;8.286;2023-03-19T01:33:50;9.13;;;5.55;;
62848;SDS011;48941;49.516;8.286;2023-03-19T01:36:19;8.23;;;5.38;;
62848;SDS011;48941;49.516;8.286;2023-03-19T01:38:46;8.90;;;5.72;;
62848;SDS011;48941;49.516;8.286;2023-03-19T01:41:14;9.55;;;5.32;;
62848;SDS011;48941;49.516;8.286;2023-03-19T01:43:42;10.18;;;6.07;;
62848;SDS011;48941;49.516;8.286;2023-03-19T01:46:12;10.70;;;5.97;;
62848;SDS011;48941;49.516;8.286;2023-03-19T01:48:48;9.20;;;5.57;;
62848;SDS011;48941;49.516;8.286;2023-03-19T01:51:19;13.07;;;6.75;;
62848;SDS011;48941;49.516;8.286;2023-03-19T01:56:21;13.90;;;7.68;;
62848;SDS011;48941;49.516;8.286;2023-03-19T01:58:55;10.20;;;6.63;;
62848;SDS011;48941;49.516;8.286;2023-03-19T02:01:24;9.20;;;6.63;;
62848;SDS011;48941;49.516;8.286;2023-03-19T02:03:56;13.02;;;6.82;;
62848;SDS011;48941;49.516;8.286;2023-03-19T02:06:26;9.80;;;6.82;;
62848;SDS011;48941;49.516;8.286;2023-03-19T02:08:55;13.82;;;7.38;;
62848;SDS011;48941;49.516;8.286;2023-03-19T02:11:24;18.17;;;8.10;;
62848;SDS011;48941;49.516;8.286;2023-03-19T02:13:52;10.68;;;7.22;;
62848;SDS011;48941;49.516;8.286;2023-03-19T02:16:19;12.45;;;7.45;;
62848;SDS011;48941;49.516;8.286;2023-03-19T02:18:47;15.45;;;6.95;;
62848;SDS011;48941;49.516;8.286;2023-03-19T02:21:17;10.60;;;6.82;;
62848;SDS011;48941;49.516;8.286;2023-03-19T02:23:48;13.00;;;7.03;;
62848;SDS011;48941;49.516;8.286;2023-03-19T02:26:25;14.50;;;7.43;;
62848;SDS011;48941;49.516;8.286;2023-03-19T02:28:55;10.40;;;6.85;;
62848;SDS011;48941;49.516;8.286;2023-03-19T02:31:23;13.02;;;6.75;;
62848;SDS011;48941;49.516;8.286;2023-03-19T02:33:55;9.20;;;6.97;;
62848;SDS011;48941;49.516;8.286;2023-03-19T02:36:25;10.60;;;7.00;;
62848;SDS011;48941;49.516;8.286;2023-03-19T02:38:59;14.18;;;7.40;;
62848;SDS011;48941;49.516;8.286;2023-03-19T02:41:31;11.95;;;6.70;;
62848;SDS011;48941;49.516;8.286;2023-03-19T02:46:31;11.18;;;5.90;;
62848;SDS011;48941;49.516;8.286;2023-03-19T02:48:58;13.55;;;6.22;;
62848;SDS011;48941;49.516;8.286;2023-03-19T02:51:26;15.32;;;7.13;;
62848;SDS011;48941;49.516;8.286;2023-03-19T02:53:54;10.75;;;6.55;;
62848;SDS011;48941;49.516;8.286;2023-03-19T02:56:22;13.18;;;6.18;;
62848;SDS011;48941;49.516;8.286;2023-03-19T02:58:51;11.35;;;6.50;;
62848;SDS011;48941;49.516;8.286;2023-03-19T03:01:19;10.80;;;6.70;;
62848;SDS011;48941;49.516;8.286;2023-03-19T03:03:47;10.75;;;6.70;;
62848;SDS011;48941;49.516;8.286;2023-03-19T03:06:15;11.95;;;6.70;;
62848;SDS011;48941;49.516;8.286;2023-03-19T03:08:43;11.60;;;6.35;;
62848;SDS011;48941;49.516;8.286;2023-03-19T03:11:11;10.07;;;6.43;;
62848;SDS011;48941;49.516;8.286;2023-03-19T03:13:39;16.85;;;6.90;;
62848;SDS011;48941;49.516;8.286;2023-03-19T03:16:08;10.65;;;6.75;;
62848;SDS011;48941;49.516;8.286;2023-03-19T03:18:36;11.38;;;6.43;;
62848;SDS011;48941;49.516;8.286;2023-03-19T03:21:04;9.75;;;5.97;;
62848;SDS011;48941;49.516;8.286;2023-03-19T03:23:32;11.55;;;6.43;;
62848;SDS011;48941;49.516;8.286;2023-03-19T03:26:00;10.52;;;6.20;;
62848;SDS011;48941;49.516;8.286;2023-03-19T03:28:28;9.88;;;5.57;;
62848;SDS011;48941;49.516;8.286;2023-03-19T03:30:57;7.95;;;5.38;;
62848;SDS011;48941;49.516;8.286;2023-03-19T03:33:26;8.50;;;5.10;;
62848;SDS011;48941;49.516;8.286;2023-03-19T03:35:54;8.13;;;5.20;;
62848;SDS011;48941;49.516;8.286;2023-03-19T03:38:22;8.32;;;5.10;;
62848;SDS011;48941;49.516;8.286;2023-03-19T03:40:50;9.48;;;4.93;;
62848;SDS011;48941;49.516;8.286;2023-03-19T03:43:18;9.85;;;4.85;;
62848;SDS011;48941;49.516;8.286;2023-03-19T03:45:47;7.57;;;5.05;;
62848;SDS011;48941;49.516;8.286;2023-03-19T03:48:15;9.23;;;4.90;;
62848;SDS011;48941;49.516;8.286;2023-03-19T03:50:45;7.78;;;5.18;;
62848;SDS011;48941;49.516;8.286;2023-03-19T03:53:13;6.68;;;4.63;;
62848;SDS011;48941;49.516;8.286;2023-03-19T03:55:41;9.23;;;4.82;;
62848;SDS011;48941;49.516;8.286;2023-03-19T03:58:09;9.43;;;4.80;;
62848;SDS011;48941;49.516;8.286;2023-03-19T04:00:38;9.60;;;4.80;;
62848;SDS011;48941;49.516;8.286;2023-03-19T04:03:06;6.70;;;5.00;;
62848;SDS011;48941;49.516;8.286;2023-03-19T04:05:34;9.32;;;5.10;;
62848;SDS011;48941;49.516;8.286;2023-03-19T04:08:04;7.03;;;5.00;;
62848;SDS011;48941;49.516;8.286;2023-03-19T04:10:33;8.27;;;5.20;;
62848;SDS011;48941;49.516;8.286;2023-03-19T04:13:02;9.43;;;5.20;;
62848;SDS011;48941;49.516;8.286;2023-03-19T04:15:29;8.93;;;5.15;;
62848;SDS011;48941;49.516;8.286;2023-03-19T04:17:57;7.18;;;4.60;;
62848;SDS011;48941;49.516;8.286;2023-03-19T04:20:25;8.23;;;4.65;;
62848;SDS011;48941;49.516;8.286;2023-03-19T04:22:53;8.43;;;5.07;;
62848;SDS011;48941;49.516;8.286;2023-03-19T04:25:22;7.35;;;4.60;;
62848;SDS011;48941;49.516;8.286;2023-03-19T04:27:51;8.43;;;4.63;;
62848;SDS011;48941;49.516;8.286;2023-03-19T04:30:19;7.80;;;4.90;;
62848;SDS011;48941;49.516;8.286;2023-03-19T04:32:47;9.30;;;5.03;;
62848;SDS011;48941;49.516;8.286;2023-03-19T04:35:14;14.23;;;5.22;;
62848;SDS011;48941;49.516;8.286;2023-03-19T04:37:43;5.90;;;4.30;;
62848;SDS011;48941;49.516;8.286;2023-03-19T04:40:14;10.30;;;4.90;;
62848;SDS011;48941;49.516;8.286;2023-03-19T04:42:43;9.48;;;4.65;;
62848;SDS011;48941;49.516;8.286;2023-03-19T04:45:11;8.10;;;4.50;;
62848;SDS011;48941;49.516;8.286;2023-03-19T04:47:39;8.23;;;5.30;;
62848;SDS011;48941;49.516;8.286;2023-03-19T04:50:08;6.78;;;4.38;;
62848;SDS011;48941;49.516;8.286;2023-03-19T04:52:38;8.38;;;4.65;;
62848;SDS011;48941;49.516;8.286;2023-03-19T04:55:06;6.05;;;4.30;;
62848;SDS011;48941;49.516;8.286;2023-03-19T04:57:34;6.40;;;4.25;;
62848;SDS011;48941;49.516;8.286;2023-03-19T05:00:04;7.75;;;4.85;;
62848;SDS011;48941;49.516;8.286;2023-03-19T05:02:33;10.05;;;5.03;;
62848;SDS011;48941;49.516;8.286;2023-03-19T05:05:00;8.50;;;5.13;;
62848;SDS011;48941;49.516;8.286;2023-03-19T05:07:28;10.85;;;6.20;;
62848;SDS011;48941;49.516;8.286;2023-03-19T05:09:56;9.02;;;5.05;;
62848;SDS011;48941;49.516;8.286;2023-03-19T05:12:24;11.32;;;5.40;;
62848;SDS011;48941;49.516;8.286;2023-03-19T05:14:52;8.23;;;5.55;;
62848;SDS011;48941;49.516;8.286;2023-03-19T05:17:21;10.40;;;5.10;;
62848;SDS011;48941;49.516;8.286;2023-03-19T05:19:49;10.00;;;4.80;;
62848;SDS011;48941;49.516;8.286;2023-03-19T05:22:17;10.57;;;5.00;;
62848;SDS011;48941;49.516;8.286;2023-03-19T05:24:46;7.25;;;4.88;;
62848;SDS011;48941;49.516;8.286;2023-03-19T05:27:14;7.32;;;4.55;;
62848;SDS011;48941;49.516;8.286;2023-03-19T05:29:42;8.25;;;5.05;;
62848;SDS011;48941;49.516;8.286;2023-03-19T05:32:09;9.93;;;4.68;;
62848;SDS011;48941;49.516;8.286;2023-03-19T05:34:38;7.80;;;4.72;;
62848;SDS011;48941;49.516;8.286;2023-03-19T05:37:06;6.85;;;4.63;;
62848;SDS011;48941;49.516;8.286;2023-03-19T05:39:34;8.00;;;4.85;;
62848;SDS011;48941;49.516;8.286;2023-03-19T05:42:02;13.07;;;4.93;;
62848;SDS011;48941;49.516;8.286;2023-03-19T05:44:30;8.30;;;4.55;;
62848;SDS011;48941;49.516;8.286;2023-03-19T05:46:58;11.95;;;4.70;;
62848;SDS011;48941;49.516;8.286;2023-03-19T05:49:26;10.23;;;4.93;;
62848;SDS011;48941;49.516;8.286;2023-03-19T05:51:55;7.50;;;4.88;;
62848;SDS011;48941;49.516;8.286;2023-03-19T05:54:23;8.55;;;4.70;;
62848;SDS011;48941;49.516;8.286;2023-03-19T05:56:51;10.32;;;5.07;;
62848;SDS011;48941;49.516;8.286;2023-03-19T05:59:19;7.72;;;4.75;;
62848;SDS011;48941;49.516;8.286;2023-03-19T06:01:47;11.73;;;4.60;;
62848;SDS011;48941;49.516;8.286;2023-03-19T06:04:15;7.80;;;4.78;;
62848;SDS011;48941;49.516;8.286;2023-03-19T06:06:42;6.85;;;4.88;;
62848;SDS011;48941;49.516;8.286;2023-03-19T06:09:12;8.98;;;5.50;;
62848;SDS011;48941;49.516;8.286;2023-03-19T06:11:40;12.23;;;5.30;;
62848;SDS011;48941;49.516;8.286;2023-03-19T06:14:08;9.88;;;5.03;;
62848;SDS011;48941;49.516;8.286;2023-03-19T06:16:36;8.18;;;4.82;;
62848;SDS011;48941;49.516;8.286;2023-03-19T06:19:03;9.50;;;4.70;;
62848;SDS011;48941;49.516;8.286;2023-03-19T06:21:31;12.00;;;5.18;;
62848;SDS011;48941;49.516;8.286;2023-03-19T06:23:59;8.05;;;5.13;;
62848;SDS011;48941;49.516;8.286;2023-03-19T06:26:29;9.30;;;5.22;;
62848;SDS011;48941;49.516;8.286;2023-03-19T06:28:56;8.75;;;5.20;;
62848;SDS011;48941;49.516;8.286;2023-03-19T06:31:24;6.28;;;4.40;;
62848;SDS011;48941;49.516;8.286;2023-03-19T06:33:52;12.02;;;4.70;;
62848;SDS011;48941;49.516;8.286;2023-03-19T06:36:20;5.70;;;4.50;;
62848;SDS011;48941;49.516;8.286;2023-03-19T06:38:48;10.35;;;5.28;;
62848;SDS011;48941;49.516;8.286;2023-03-19T06:41:16;8.35;;;5.30;;
62848;SDS011;48941;49.516;8.286;2023-03-19T06:43:45;10.15;;;5.40;;
62848;SDS011;48941;49.516;8.286;2023-03-19T06:46:12;9.18;;;5.70;;
62848;SDS011;48941;49.516;8.286;2023-03-19T06:48:40;10.38;;;5.30;;
62848;SDS011;48941;49.516;8.286;2023-03-19T06:51:08;11.10;;;5.85;;
62848;SDS011;48941;49.516;8.286;2023-03-19T06:53:36;10.90;;;6.20;;
62848;SDS011;48941;49.516;8.286;2023-03-19T06:56:04;9.32;;;6.40;;
62848;SDS011;48941;49.516;8.286;2023-03-19T06:58:32;14.80;;;6.15;;
62848;SDS011;48941;49.516;8.286;2023-03-19T07:01:02;9.98;;;6.22;;
62848;SDS011;48941;49.516;8.286;2023-03-19T07:03:31;10.27;;;6.15;;
62848;SDS011;48941;49.516;8.286;2023-03-19T07:05:59;9.77;;;6.03;;
62848;SDS011;48941;49.516;8.286;2023-03-19T07:08:29;10.20;;;5.50;;
62848;SDS011;48941;49.516;8.286;2023-03-19T07:11:01;10.27;;;6.00;;
62848;SDS011;48941;49.516;8.286;2023-03-19T07:13:30;8.50;;;6.35;;
62848;SDS011;48941;49.516;8.286;2023-03-19T07:15:58;8.60;;;5.97;;
62848;SDS011;48941;49.516;8.286;2023-03-19T07:18:28;10.45;;;6.22;;
62848;SDS011;48941;49.516;8.286;2023-03-19T07:20:56;8.55;;;6.10;;
62848;SDS011;48941;49.516;8.286;2023-03-19T07:23:24;14.13;;;6.63;;
62848;SDS011;48941;49.516;8.286;2023-03-19T07:25:51;11.52;;;6.60;;
62848;SDS011;48941;49.516;8.286;2023-03-19T07:28:19;10.70;;;6.53;;
62848;SDS011;48941;49.516;8.286;2023-03-19T07:30:47;14.00;;;7.38;;
62848;SDS011;48941;49.516;8.286;2023-03-19T07:33:17;9.88;;;6.70;;
62848;SDS011;48941;49.516;8.286;2023-03-19T07:35:47;9.73;;;5.85;;
62848;SDS011;48941;49.516;8.286;2023-03-19T07:38:14;9.32;;;6.28;;
62848;SDS011;48941;49.516;8.286;2023-03-19T07:40:43;10.18;;;6.18;;
62848;SDS011;48941;49.516;8.286;2023-03-19T07:43:24;9.88;;;6.15;;
62848;SDS011;48941;49.516;8.286;2023-03-19T07:45:52;15.90;;;7.50;;
62848;SDS011;48941;49.516;8.286;2023-03-19T07:48:20;9.20;;;6.15;;
62848;SDS011;48941;49.516;8.286;2023-03-19T07:50:49;10.25;;;6.40;;
62848;SDS011;48941;49.516;8.286;2023-03-19T07:53:18;9.05;;;5.68;;
62848;SDS011;48941;49.516;8.286;2023-03-19T07:55:48;8.68;;;5.95;;
62848;SDS011;48941;49.516;8.286;2023-03-19T07:58:16;8.15;;;5.57;;
62848;SDS011;48941;49.516;8.286;2023-03-19T08:00:44;8.85;;;6.13;;
62848;SDS011;48941;49.516;8.286;2023-03-19T08:03:13;9.70;;;5.60;;
62848;SDS011;48941;49.516;8.286;2023-03-19T08:05:41;10.60;;;6.22;;
62848;SDS011;48941;49.516;8.286;2023-03-19T08:08:11;9.40;;;6.25;;
62848;SDS011;48941;49.516;8.286;2023-03-19T08:10:40;8.90;;;5.82;;
62848;SDS011;48941;49.516;8.286;2023-03-19T08:13:08;13.00;;;5.88;;
62848;SDS011;48941;49.516;8.286;2023-03-19T08:15:36;11.52;;;5.97;;
62848;SDS011;48941;49.516;8.286;2023-03-19T08:18:04;8.48;;;5.90;;
62848;SDS011;48941;49.516;8.286;2023-03-19T08:20:32;10.70;;;5.70;;
62848;SDS011;48941;49.516;8.286;2023-03-19T08:23:02;12.98;;;7.00;;
62848;SDS011;48941;49.516;8.286;2023-03-19T08:25:32;11.77;;;6.32;;
62848;SDS011;48941;49.516;8.286;2023-03-19T08:28:00;11.60;;;6.55;;
62848;SDS011;48941;49.516;8.286;2023-03-19T08:30:28;9.13;;;6.32;;
62848;SDS011;48941;49.516;8.286;2023-03-19T08:32:57;18.58;;;6.47;;
62848;SDS011;48941;49.516;8.286;2023-03-19T08:35:25;12.35;;;6.55;;
62848;SDS011;48941;49.516;8.286;2023-03-19T08:37:53;15.73;;;5.97;;
62848;SDS011;48941;49.516;8.286;2023-03-19T08:40:22;12.35;;;6.82;;
62848;SDS011;48941;49.516;8.286;2023-03-19T08:42:51;13.93;;;5.70;;
62848;SDS011;48941;49.516;8.286;2023-03-19T08:45:20;8.85;;;4.90;;
62848;SDS011;48941;49.516;8.286;2023-03-19T08:47:48;8.25;;;4.82;;
62848;SDS011;48941;49.516;8.286;2023-03-19T08:50:16;11.95;;;4.97;;
62848;SDS011;48941;49.516;8.286;2023-03-19T08:52:45;8.73;;;5.72;;
62848;SDS011;48941;49.516;8.286;2023-03-19T08:55:13;9.27;;;4.97;;
62848;SDS011;48941;49.516;8.286;2023-03-19T08:57:42;7.68;;;4.55;;
62848;SDS011;48941;49.516;8.286;2023-03-19T09:00:12;7.80;;;4.93;;
62848;SDS011;48941;49.516;8.286;2023-03-19T09:02:41;8.90;;;4.90;;
62848;SDS011;48941;49.516;8.286;2023-03-19T09:05:09;8.95;;;4.38;;
62848;SDS011;48941;49.516;8.286;2023-03-19T09:07:37;16.42;;;4.57;;
62848;SDS011;48941;49.516;8.286;2023-03-19T09:10:05;8.13;;;4.63;;
62848;SDS011;48941;49.516;8.286;2023-03-19T09:12:33;9.88;;;4.72;;
62848;SDS011;48941;49.516;8.286;2023-03-19T09:15:02;9.13;;;5.35;;
62848;SDS011;48941;49.516;8.286;2023-03-19T09:17:31;8.77;;;4.90;;
62848;SDS011;48941;49.516;8.286;2023-03-19T09:19:59;9.48;;;5.15;;
62848;SDS011;48941;49.516;8.286;2023-03-19T09:22:27;10.07;;;4.70;;
62848;SDS011;48941;49.516;8.286;2023-03-19T09:24:55;8.10;;;4.20;;
62848;SDS011;48941;49.516;8.286;2023-03-19T09:27:22;6.85;;;4.13;;
62848;SDS011;48941;49.516;8.286;2023-03-19T09:29:50;6.10;;;3.80;;
62848;SDS011;48941;49.516;8.286;2023-03-19T09:32:18;5.57;;;3.33;;
62848;SDS011;48941;49.516;8.286;2023-03-19T09:34:48;4.60;;;3.20;;
62848;SDS011;48941;49.516;8.286;2023-03-19T09:37:16;5.90;;;3.50;;
62848;SDS011;48941;49.516;8.286;2023-03-19T09:39:44;8.60;;;3.58;;
62848;SDS011;48941;49.516;8.286;2023-03-19T09:42:14;5.82;;;3.50;;
62848;SDS011;48941;49.516;8.286;2023-03-19T09:44:52;5.55;;;2.97;;
62848;SDS011;48941;49.516;8.286;2023-03-19T09:47:27;8.63;;;3.55;;
62848;SDS011;48941;49.516;8.286;2023-03-19T09:49:58;4.88;;;3.20;;
62848;SDS011;48941;49.516;8.286;2023-03-19T09:52:34;5.40;;;3.00;;
62848;SDS011;48941;49.516;8.286;2023-03-19T09:55:13;6.13;;;3.20;;
62848;SDS011;48941;49.516;8.286;2023-03-19T09:57:52;5.75;;;2.78;;
62848;SDS011;48941;49.516;8.286;2023-03-19T10:00:23;5.63;;;2.90;;
62848;SDS011;48941;49.516;8.286;2023-03-19T10:02:53;5.28;;;2.70;;
62848;SDS011;48941;49.516;8.286;2023-03-19T10:05:34;7.97;;;3.20;;
62848;SDS011;48941;49.516;8.286;2023-03-19T10:08:17;4.70;;;2.70;;
62848;SDS011;48941;49.516;8.286;2023-03-19T10:11:15;8.27;;;3.17;;
62848;SDS011;48941;49.516;8.286;2023-03-19T10:13:58;4.70;;;2.80;;
62848;SDS011;48941;49.516;8.286;2023-03-19T10:16:40;4.65;;;2.90;;
62848;SDS011;48941;49.516;8.286;2023-03-19T10:19:12;4.40;;;2.65;;
62848;SDS011;48941;49.516;8.286;2023-03-19T10:21:48;5.97;;;2.90;;
62848;SDS011;48941;49.516;8.286;2023-03-19T10:24:23;5.22;;;3.70;;
62848;SDS011;48941;49.516;8.286;2023-03-19T10:26:57;6.53;;;2.90;;
62848;SDS011;48941;49.516;8.286;2023-03-19T10:29:28;6.20;;;2.92;;
62848;SDS011;48941;49.516;8.286;2023-03-19T10:31:57;8.68;;;3.10;;
62848;SDS011;48941;49.516;8.286;2023-03-19T10:34:35;6.80;;;2.70;;
62848;SDS011;48941;49.516;8.286;2023-03-19T10:37:05;6.03;;;2.80;;
62848;SDS011;48941;49.516;8.286;2023-03-19T10:39:42;7.00;;;2.85;;
62848;SDS011;48941;49.516;8.286;2023-03-19T10:42:25;7.50;;;2.90;;
62848;SDS011;48941;49.516;8.286;2023-03-19T10:45:17;4.65;;;3.28;;
62848;SDS011;48941;49.516;8.286;2023-03-19T10:47:50;4.28;;;2.70;;
62848;SDS011;48941;49.516;8.286;2023-03-19T10:50:22;8.40;;;2.70;;
62848;SDS011;48941;49.516;8.286;2023-03-19T10:53:01;6.82;;;2.88;;
62848;SDS011;48941;49.516;8.286;2023-03-19T10:55:33;4.50;;;2.55;;
62848;SDS011;48941;49.516;8.286;2023-03-19T10:58:03;3.53;;;2.50;;
62848;SDS011;48941;49.516;8.286;2023-03-19T11:00:32;5.47;;;2.70;;
62848;SDS011;48941;49.516;8.286;2023-03-19T11:03:01;17.42;;;7.97;;
62848;SDS011;48941;49.516;8.286;2023-03-19T11:05:31;11.88;;;7.50;;
62848;SDS011;48941;49.516;8.286;2023-03-19T11:08:02;4.95;;;3.17;;
62848;SDS011;48941;49.516;8.286;2023-03-19T11:10:32;6.70;;;2.90;;
62848;SDS011;48941;49.516;8.286;2023-03-19T11:13:03;6.03;;;2.67;;
62848;SDS011;48941;49.516;8.286;2023-03-19T11:15:32;6.38;;;2.90;;
62848;SDS011;48941;49.516;8.286;2023-03-19T11:18:05;4.10;;;2.63;;
62848;SDS011;48941;49.516;8.286;2023-03-19T11:20:35;3.58;;;2.70;;
62848;SDS011;48941;49.516;8.286;2023-03-19T11:23:07;4.88;;;2.70;;
62848;SDS011;48941;49.516;8.286;2023-03-19T11:25:41;8.63;;;3.95;;
62848;SDS011;48941;49.516;8.286;2023-03-19T11:28:14;11.80;;;6.57;;
62848;SDS011;48941;49.516;8.286;2023-03-19T11:30:48;4.95;;;3.17;;
62848;SDS011;48941;49.516;8.286;2023-03-19T11:36:15;5.05;;;3.08;;
62848;SDS011;48941;49.516;8.286;2023-03-19T11:38:55;3.58;;;2.83;;
62848;SDS011;48941;49.516;8.286;2023-03-19T11:41:33;6.93;;;3.30;;
62848;SDS011;48941;49.516;8.286;2023-03-19T11:44:13;5.15;;;2.90;;
62848;SDS011;48941;49.516;8.286;2023-03-19T11:46:44;4.00;;;2.55;;
62848;SDS011;48941;49.516;8.286;2023-03-19T11:52:10;4.93;;;3.00;;
62848;SDS011;48941;49.516;8.286;2023-03-19T11:54:47;6.28;;;2.80;;
62848;SDS011;48941;49.516;8.286;2023-03-19T11:57:24;6.18;;;2.92;;
62848;SDS011;48941;49.516;8.286;2023-03-19T12:00:00;5.05;;;2.70;;
62848;SDS011;48941;49.516;8.286;2023-03-19T12:02:39;4.60;;;2.58;;
62848;SDS011;48941;49.516;8.286;2023-03-19T12:05:20;5.18;;;3.00;;
62848;SDS011;48941;49.516;8.286;2023-03-19T12:07:57;3.22;;;2.42;;
62848;SDS011;48941;49.516;8.286;2023-03-19T12:10:39;5.32;;;2.67;;
62848;SDS011;48941;49.516;8.286;2023-03-19T12:13:15;5.03;;;2.90;;
62848;SDS011;48941;49.516;8.286;2023-03-19T12:15:54;5.30;;;2.70;;
62848;SDS011;48941;49.516;8.286;2023-03-19T12:18:35;4.90;;;2.88;;
62848;SDS011;48941;49.516;8.286;2023-03-19T12:23:58;4.45;;;2.90;;
62848;SDS011;48941;49.516;8.286;2023-03-19T12:26:34;5.55;;;2.53;;
62848;SDS011;48941;49.516;8.286;2023-03-19T12:29:13;4.25;;;2.40;;
62848;SDS011;48941;49.516;8.286;2023-03-19T12:31:53;4.18;;;2.85;;
62848;SDS011;48941;49.516;8.286;2023-03-19T12:34:32;5.03;;;2.88;;
62848;SDS011;48941;49.516;8.286;2023-03-19T12:37:10;4.05;;;2.90;;
62848;SDS011;48941;49.516;8.286;2023-03-19T12:39:44;6.25;;;2.53;;
62848;SDS011;48941;49.516;8.286;2023-03-19T12:42:21;4.30;;;2.67;;
62848;SDS011;48941;49.516;8.286;2023-03-19T12:44:55;4.53;;;2.50;;
62848;SDS011;48941;49.516;8.286;2023-03-19T12:47:25;2.50;;;2.10;;
62848;SDS011;48941;49.516;8.286;2023-03-19T12:49:58;4.78;;;2.40;;
62848;SDS011;48941;49.516;8.286;2023-03-19T12:52:30;5.97;;;2.58;;
62848;SDS011;48941;49.516;8.286;2023-03-19T12:55:03;3.25;;;2.30;;
62848;SDS011;48941;49.516;8.286;2023-03-19T12:57:42;3.47;;;2.20;;
62848;SDS011;48941;49.516;8.286;2023-03-19T13:00:16;2.67;;;2.17;;
62848;SDS011;48941;49.516;8.286;2023-03-19T13:02:54;4.82;;;2.58;;
62848;SDS011;48941;49.516;8.286;2023-03-19T13:05:31;3.60;;;2.42;;
62848;SDS011;48941;49.516;8.286;2023-03-19T13:08:09;4.28;;;2.67;;
62848;SDS011;48941;49.516;8.286;2023-03-19T13:10:42;3.05;;;2.40;;
62848;SDS011;48941;49.516;8.286;2023-03-19T13:13:17;5.65;;;2.72;;
62848;SDS011;48941;49.516;8.286;2023-03-19T13:15:54;4.88;;;2.60;;
62848;SDS011;48941;49.516;8.286;2023-03-19T13:18:29;6.00;;;2.80;;
62848;SDS011;48941;49.516;8.286;2023-03-19T13:21:05;3.88;;;2.58;;
62848;SDS011;48941;49.516;8.286;2023-03-19T13:23:41;3.83;;;2.60;;
62848;SDS011;48941;49.516;8.286;2023-03-19T13:26:11;4.25;;;2.58;;
62848;SDS011;48941;49.516;8.286;2023-03-19T13:28:54;4.22;;;2.40;;
62848;SDS011;48941;49.516;8.286;2023-03-19T13:31:26;5.50;;;2.60;;
62848;SDS011;48941;49.516;8.286;2023-03-19T13:34:00;3.55;;;2.70;;
62848;SDS011;48941;49.516;8.286;2023-03-19T13:36:30;4.22;;;2.47;;
62848;SDS011;48941;49.516;8.286;2023-03-19T13:39:03;6.38;;;2.80;;
62848;SDS011;48941;49.516;8.286;2023-03-19T13:41:53;4.50;;;2.40;;
62848;SDS011;48941;49.516;8.286;2023-03-19T13:44:36;4.18;;;2.88;;
62848;SDS011;48941;49.516;8.286;2023-03-19T13:53:09;7.55;;;3.30;;
62848;SDS011;48941;49.516;8.286;2023-03-19T13:55:44;6.80;;;2.70;;
62848;SDS011;48941;49.516;8.286;2023-03-19T13:58:17;3.78;;;2.70;;
62848;SDS011;48941;49.516;8.286;2023-03-19T14:01:05;3.53;;;2.83;;
62848;SDS011;48941;49.516;8.286;2023-03-19T14:03:35;6.05;;;3.05;;
62848;SDS011;48941;49.516;8.286;2023-03-19T14:09:02;6.45;;;3.03;;
62848;SDS011;48941;49.516;8.286;2023-03-19T14:11:31;3.38;;;2.60;;
62848;SDS011;48941;49.516;8.286;2023-03-19T14:14:02;6.47;;;2.92;;
62848;SDS011;48941;49.516;8.286;2023-03-19T14:16:37;2.60;;;2.38;;
62848;SDS011;48941;49.516;8.286;2023-03-19T14:19:15;3.15;;;2.42;;
62848;SDS011;48941;49.516;8.286;2023-03-19T14:22:00;5.68;;;2.85;;
62848;SDS011;48941;49.516;8.286;2023-03-19T14:24:35;5.10;;;2.85;;
62848;SDS011;48941;49.516;8.286;2023-03-19T14:27:24;6.72;;;2.65;;
62848;SDS011;48941;49.516;8.286;2023-03-19T14:29:59;3.70;;;2.53;;
62848;SDS011;48941;49.516;8.286;2023-03-19T14:32:33;2.75;;;2.40;;
62848;SDS011;48941;49.516;8.286;2023-03-19T14:35:06;4.15;;;2.70;;
62848;SDS011;48941;49.516;8.286;2023-03-19T14:37:42;4.07;;;2.72;;
62848;SDS011;48941;49.516;8.286;2023-03-19T14:40:14;4.72;;;2.50;;
62848;SDS011;48941;49.516;8.286;2023-03-19T14:42:49;4.13;;;2.72;;
62848;SDS011;48941;49.516;8.286;2023-03-19T14:54:23;2.75;;;2.33;;
62848;SDS011;48941;49.516;8.286;2023-03-19T14:56:57;3.00;;;2.20;;
62848;SDS011;48941;49.516;8.286;2023-03-19T14:59:25;3.33;;;2.63;;
62848;SDS011;48941;49.516;8.286;2023-03-19T15:02:03;5.20;;;2.70;;
62848;SDS011;48941;49.516;8.286;2023-03-19T15:04:45;2.35;;;2.00;;
62848;SDS011;48941;49.516;8.286;2023-03-19T15:07:17;2.85;;;1.90;;
62848;SDS011;48941;49.516;8.286;2023-03-19T15:09:48;3.67;;;1.80;;
62848;SDS011;48941;49.516;8.286;2023-03-19T15:15:26;1.70;;;1.60;;
62848;SDS011;48941;49.516;8.286;2023-03-19T15:18:02;2.30;;;1.92;;
62848;SDS011;48941;49.516;8.286;2023-03-19T15:20:36;3.80;;;2.88;;
62848;SDS011;48941;49.516;8.286;2023-03-19T15:25:51;4.15;;;2.80;;
62848;SDS011;48941;49.516;8.286;2023-03-19T15:28:22;3.80;;;2.63;;
62848;SDS011;48941;49.516;8.286;2023-03-19T15:30:56;4.85;;;2.80;;
62848;SDS011;48941;49.516;8.286;2023-03-19T15:36:15;4.57;;;2.90;;
62848;SDS011;48941;49.516;8.286;2023-03-19T15:38:47;2.45;;;2.25;;
62848;SDS011;48941;49.516;8.286;2023-03-19T15:41:21;3.92;;;2.45;;
62848;SDS011;48941;49.516;8.286;2023-03-19T15:43:51;3.65;;;2.90;;
62848;SDS011;48941;49.516;8.286;2023-03-19T15:46:20;4.10;;;2.45;;